sensor_id;sensor_type;location;lat;lon;timestamp;pressure;altitude;pressure_sealevel;temperature;humidity
77776;BME280;66965;43.328;6.668;2023-02-25T00:02:10;100619.13;;;11.97;80.88
77776;BME280;66965;43.328;6.668;2023-02-25T00:04:35;100617.31;;;11.97;80.92
77776;BME280;66965;43.328;6.668;2023-02-25T00:07:01;100618.56;;;11.85;80.90
77776;BME280;66965;43.328;6.668;2023-02-25T00:09:27;100621.56;;;11.73;81.02
77776;BME280;66965;43.328;6.668;2023-02-25T00:11:53;100625.91;;;11.74;81.99
77776;BME280;66965;43.328;6.668;2023-02-25T00:14:18;100627.09;;;11.61;81.86
77776;BME280;66965;43.328;6.668;2023-02-25T00:16:44;100620.66;;;11.74;81.53
77776;BME280;66965;43.328;6.668;2023-02-25T00:19:10;100615.31;;;11.47;81.34
77776;BME280;66965;43.328;6.668;2023-02-25T00:21:35;100612.25;;;11.31;80.93
77776;BME280;66965;43.328;6.668;2023-02-25T00:24:01;100608.13;;;11.22;80.85
77776;BME280;66965;43.328;6.668;2023-02-25T00:26:26;100607.63;;;11.08;80.87
77776;BME280;66965;43.328;6.668;2023-02-25T00:28:52;100608.84;;;10.95;81.03
77776;BME280;66965;43.328;6.668;2023-02-25T00:31:20;100591.38;;;10.94;81.48
77776;BME280;66965;43.328;6.668;2023-02-25T00:33:47;100588.84;;;10.91;81.56
77776;BME280;66965;43.328;6.668;2023-02-25T00:36:15;100588.22;;;11.14;82.11
77776;BME280;66965;43.328;6.668;2023-02-25T00:38:44;100593.97;;;11.28;81.15
77776;BME280;66965;43.328;6.668;2023-02-25T00:41:13;100588.72;;;10.96;80.61
77776;BME280;66965;43.328;6.668;2023-02-25T00:43:41;100589.66;;;10.93;81.17
77776;BME280;66965;43.328;6.668;2023-02-25T00:46:08;100590.34;;;11.00;81.37
77776;BME280;66965;43.328;6.668;2023-02-25T00:48:35;100579.72;;;11.04;81.64
77776;BME280;66965;43.328;6.668;2023-02-25T00:51:04;100568.19;;;11.11;81.73
77776;BME280;66965;43.328;6.668;2023-02-25T00:53:29;100570.75;;;11.13;81.53
77776;BME280;66965;43.328;6.668;2023-02-25T00:55:59;100561.13;;;11.13;81.55
77776;BME280;66965;43.328;6.668;2023-02-25T00:58:25;100557.25;;;11.26;81.21
77776;BME280;66965;43.328;6.668;2023-02-25T01:00:50;100551.06;;;11.29;80.59
77776;BME280;66965;43.328;6.668;2023-02-25T01:03:15;100546.41;;;11.39;80.39
77776;BME280;66965;43.328;6.668;2023-02-25T01:05:41;100552.47;;;11.41;80.17
77776;BME280;66965;43.328;6.668;2023-02-25T01:08:07;100567.91;;;11.20;80.11
77776;BME280;66965;43.328;6.668;2023-02-25T01:10:32;100572.59;;;11.09;80.95
77776;BME280;66965;43.328;6.668;2023-02-25T01:12:57;100573.47;;;11.10;81.86
77776;BME280;66965;43.328;6.668;2023-02-25T01:15:23;100562.88;;;11.14;82.10
77776;BME280;66965;43.328;6.668;2023-02-25T01:17:48;100564.47;;;11.18;82.28
77776;BME280;66965;43.328;6.668;2023-02-25T01:20:14;100563.38;;;11.27;81.96
77776;BME280;66965;43.328;6.668;2023-02-25T01:22:44;100563.38;;;11.27;81.84
77776;BME280;66965;43.328;6.668;2023-02-25T01:25:11;100559.41;;;11.12;82.17
77776;BME280;66965;43.328;6.668;2023-02-25T01:27:38;100558.13;;;11.27;82.25
77776;BME280;66965;43.328;6.668;2023-02-25T01:30:04;100550.50;;;11.49;82.11
77776;BME280;66965;43.328;6.668;2023-02-25T01:32:30;100553.81;;;11.24;81.40
77776;BME280;66965;43.328;6.668;2023-02-25T01:34:55;100551.75;;;11.05;81.95
77776;BME280;66965;43.328;6.668;2023-02-25T01:37:21;100543.84;;;11.06;82.17
77776;BME280;66965;43.328;6.668;2023-02-25T01:39:46;100543.00;;;11.04;82.06
77776;BME280;66965;43.328;6.668;2023-02-25T01:42:14;100530.50;;;10.83;82.45
77776;BME280;66965;43.328;6.668;2023-02-25T01:47:45;100527.34;;;11.03;83.08
77776;BME280;66965;43.328;6.668;2023-02-25T01:50:11;100514.63;;;11.18;82.34
77776;BME280;66965;43.328;6.668;2023-02-25T01:52:39;100517.91;;;11.26;81.94
77776;BME280;66965;43.328;6.668;2023-02-25T01:55:07;100510.56;;;11.39;81.92
77776;BME280;66965;43.328;6.668;2023-02-25T01:57:33;100511.22;;;11.46;81.72
77776;BME280;66965;43.328;6.668;2023-02-25T01:59:59;100502.06;;;11.59;81.02
77776;BME280;66965;43.328;6.668;2023-02-25T02:02:25;100501.44;;;11.80;80.39
77776;BME280;66965;43.328;6.668;2023-02-25T02:04:53;100499.53;;;11.85;79.47
77776;BME280;66965;43.328;6.668;2023-02-25T02:07:20;100492.34;;;11.90;79.26
77776;BME280;66965;43.328;6.668;2023-02-25T02:09:47;100494.03;;;11.93;79.64
77776;BME280;66965;43.328;6.668;2023-02-25T02:12:24;100496.84;;;11.86;79.85
77776;BME280;66965;43.328;6.668;2023-02-25T02:14:51;100492.19;;;11.95;79.93
77776;BME280;66965;43.328;6.668;2023-02-25T02:17:34;100487.44;;;12.07;79.40
77776;BME280;66965;43.328;6.668;2023-02-25T02:40:06;100491.47;;;11.91;78.87
77776;BME280;66965;43.328;6.668;2023-02-25T02:45:31;100486.84;;;11.71;80.43
77776;BME280;66965;43.328;6.668;2023-02-25T02:48:06;100488.72;;;11.66;80.16
77776;BME280;66965;43.328;6.668;2023-02-25T02:50:37;100484.94;;;11.75;80.78
77776;BME280;66965;43.328;6.668;2023-02-25T02:53:26;100487.56;;;11.75;80.62
77776;BME280;66965;43.328;6.668;2023-02-25T02:55:55;100480.09;;;11.91;80.71
77776;BME280;66965;43.328;6.668;2023-02-25T02:58:36;100477.22;;;11.98;79.89
77776;BME280;66965;43.328;6.668;2023-02-25T03:01:11;100472.47;;;12.09;80.10
77776;BME280;66965;43.328;6.668;2023-02-25T03:03:39;100463.78;;;12.07;79.84
77776;BME280;66965;43.328;6.668;2023-02-25T03:06:11;100467.81;;;12.17;79.60
77776;BME280;66965;43.328;6.668;2023-02-25T03:08:44;100470.22;;;11.97;79.74
77776;BME280;66965;43.328;6.668;2023-02-25T03:11:12;100469.84;;;12.09;80.23
77776;BME280;66965;43.328;6.668;2023-02-25T03:13:38;100474.06;;;12.13;80.00
77776;BME280;66965;43.328;6.668;2023-02-25T03:16:06;100468.41;;;12.25;80.00
77776;BME280;66965;43.328;6.668;2023-02-25T03:18:38;100464.66;;;12.32;80.03
77776;BME280;66965;43.328;6.668;2023-02-25T03:21:12;100459.38;;;12.34;79.97
77776;BME280;66965;43.328;6.668;2023-02-25T03:23:40;100451.41;;;12.35;80.42
77776;BME280;66965;43.328;6.668;2023-02-25T03:26:22;100460.22;;;12.34;80.34
77776;BME280;66965;43.328;6.668;2023-02-25T03:28:48;100457.91;;;12.25;79.86
77776;BME280;66965;43.328;6.668;2023-02-25T03:33:46;100454.38;;;12.26;80.33
77776;BME280;66965;43.328;6.668;2023-02-25T03:36:18;100441.47;;;12.19;80.30
77776;BME280;66965;43.328;6.668;2023-02-25T03:38:50;100454.06;;;12.09;81.12
77776;BME280;66965;43.328;6.668;2023-02-25T03:41:17;100442.78;;;12.07;81.22
77776;BME280;66965;43.328;6.668;2023-02-25T03:43:49;100442.78;;;12.07;81.49
77776;BME280;66965;43.328;6.668;2023-02-25T03:46:18;100433.09;;;12.08;81.34
77776;BME280;66965;43.328;6.668;2023-02-25T03:48:45;100421.59;;;12.12;81.54
77776;BME280;66965;43.328;6.668;2023-02-25T03:51:12;100434.63;;;12.15;81.23
77776;BME280;66965;43.328;6.668;2023-02-25T03:53:39;100415.78;;;12.27;80.58
77776;BME280;66965;43.328;6.668;2023-02-25T03:56:08;100422.75;;;12.29;80.31
77776;BME280;66965;43.328;6.668;2023-02-25T03:58:35;100422.47;;;12.37;80.20
77776;BME280;66965;43.328;6.668;2023-02-25T04:01:05;100410.50;;;12.28;79.75
77776;BME280;66965;43.328;6.668;2023-02-25T04:03:32;100391.69;;;12.16;80.12
77776;BME280;66965;43.328;6.668;2023-02-25T04:05:58;100390.56;;;12.21;80.61
77776;BME280;66965;43.328;6.668;2023-02-25T04:08:23;100391.63;;;12.17;80.90
77776;BME280;66965;43.328;6.668;2023-02-25T04:10:49;100384.69;;;12.15;80.68
77776;BME280;66965;43.328;6.668;2023-02-25T04:13:15;100386.56;;;12.11;81.01
77776;BME280;66965;43.328;6.668;2023-02-25T04:15:41;100377.69;;;12.15;80.64
77776;BME280;66965;43.328;6.668;2023-02-25T04:18:07;100371.84;;;12.07;80.83
77776;BME280;66965;43.328;6.668;2023-02-25T04:20:33;100367.16;;;12.15;80.93
77776;BME280;66965;43.328;6.668;2023-02-25T04:23:00;100363.50;;;12.19;80.89
77776;BME280;66965;43.328;6.668;2023-02-25T04:25:26;100361.47;;;12.03;80.71
77776;BME280;66965;43.328;6.668;2023-02-25T04:27:52;100348.91;;;12.11;80.98
77776;BME280;66965;43.328;6.668;2023-02-25T04:30:17;100353.28;;;12.12;81.02
77776;BME280;66965;43.328;6.668;2023-02-25T04:32:43;100352.50;;;12.08;81.38
77776;BME280;66965;43.328;6.668;2023-02-25T04:35:08;100350.81;;;12.07;81.09
77776;BME280;66965;43.328;6.668;2023-02-25T04:37:38;100358.22;;;11.96;80.87
77776;BME280;66965;43.328;6.668;2023-02-25T04:40:05;100358.25;;;11.95;81.37
77776;BME280;66965;43.328;6.668;2023-02-25T04:42:36;100347.63;;;11.98;81.16
77776;BME280;66965;43.328;6.668;2023-02-25T04:45:02;100347.91;;;11.90;81.43
77776;BME280;66965;43.328;6.668;2023-02-25T04:47:28;100355.88;;;11.87;81.76
77776;BME280;66965;43.328;6.668;2023-02-25T04:49:54;100347.31;;;11.82;81.79
77776;BME280;66965;43.328;6.668;2023-02-25T04:52:19;100343.13;;;11.76;81.75
77776;BME280;66965;43.328;6.668;2023-02-25T04:54:44;100336.81;;;11.82;81.79
77776;BME280;66965;43.328;6.668;2023-02-25T04:57:11;100339.53;;;11.79;81.73
77776;BME280;66965;43.328;6.668;2023-02-25T04:59:37;100332.66;;;11.75;81.90
77776;BME280;66965;43.328;6.668;2023-02-25T05:02:02;100333.50;;;11.75;82.10
77776;BME280;66965;43.328;6.668;2023-02-25T05:04:28;100315.91;;;11.79;82.10
77776;BME280;66965;43.328;6.668;2023-02-25T05:06:54;100302.28;;;11.93;81.36
77776;BME280;66965;43.328;6.668;2023-02-25T05:09:19;100298.38;;;12.04;81.07
77776;BME280;66965;43.328;6.668;2023-02-25T05:11:45;100292.75;;;11.90;80.50
77776;BME280;66965;43.328;6.668;2023-02-25T05:14:11;100297.41;;;11.82;80.52
77776;BME280;66965;43.328;6.668;2023-02-25T05:16:36;100290.44;;;11.81;80.85
77776;BME280;66965;43.328;6.668;2023-02-25T05:19:02;100286.91;;;11.82;81.42
77776;BME280;66965;43.328;6.668;2023-02-25T05:21:27;100286.13;;;11.80;81.58
77776;BME280;66965;43.328;6.668;2023-02-25T05:23:54;100277.41;;;11.78;81.82
77776;BME280;66965;43.328;6.668;2023-02-25T05:26:21;100273.13;;;11.75;81.89
77776;BME280;66965;43.328;6.668;2023-02-25T05:28:49;100276.28;;;11.59;82.04
77776;BME280;66965;43.328;6.668;2023-02-25T05:31:14;100276.94;;;11.41;82.40
77776;BME280;66965;43.328;6.668;2023-02-25T05:33:40;100274.75;;;11.27;82.96
77776;BME280;66965;43.328;6.668;2023-02-25T05:36:06;100279.03;;;11.29;83.58
77776;BME280;66965;43.328;6.668;2023-02-25T05:38:33;100266.34;;;11.44;83.73
77776;BME280;66965;43.328;6.668;2023-02-25T05:40:59;100267.13;;;11.46;83.32
77776;BME280;66965;43.328;6.668;2023-02-25T05:43:25;100263.59;;;11.47;82.90
77776;BME280;66965;43.328;6.668;2023-02-25T05:45:57;100264.59;;;11.43;82.44
77776;BME280;66965;43.328;6.668;2023-02-25T05:48:24;100249.78;;;11.42;82.23
77776;BME280;66965;43.328;6.668;2023-02-25T05:50:50;100246.84;;;11.51;82.10
77776;BME280;66965;43.328;6.668;2023-02-25T05:53:17;100241.06;;;11.66;81.63
77776;BME280;66965;43.328;6.668;2023-02-25T05:55:42;100240.50;;;11.56;81.36
77776;BME280;66965;43.328;6.668;2023-02-25T05:58:08;100250.22;;;11.54;81.84
77776;BME280;66965;43.328;6.668;2023-02-25T06:00:34;100249.22;;;11.58;81.79
77776;BME280;66965;43.328;6.668;2023-02-25T06:02:59;100253.44;;;11.62;81.84
77776;BME280;66965;43.328;6.668;2023-02-25T06:05:24;100250.31;;;11.51;81.35
77776;BME280;66965;43.328;6.668;2023-02-25T06:07:50;100250.00;;;11.36;81.71
77776;BME280;66965;43.328;6.668;2023-02-25T06:10:16;100243.22;;;11.55;82.11
77776;BME280;66965;43.328;6.668;2023-02-25T06:12:41;100243.22;;;11.55;82.10
77776;BME280;66965;43.328;6.668;2023-02-25T06:15:07;100240.97;;;11.43;81.31
77776;BME280;66965;43.328;6.668;2023-02-25T06:17:33;100247.28;;;11.37;82.11
77776;BME280;66965;43.328;6.668;2023-02-25T06:19:58;100240.34;;;11.36;82.23
77776;BME280;66965;43.328;6.668;2023-02-25T06:22:25;100236.00;;;11.35;82.32
77776;BME280;66965;43.328;6.668;2023-02-25T06:24:51;100223.44;;;11.45;82.76
77776;BME280;66965;43.328;6.668;2023-02-25T06:27:16;100242.06;;;11.37;82.40
77776;BME280;66965;43.328;6.668;2023-02-25T06:29:41;100236.28;;;11.52;81.88
77776;BME280;66965;43.328;6.668;2023-02-25T06:32:10;100234.19;;;11.62;81.83
77776;BME280;66965;43.328;6.668;2023-02-25T06:34:36;100224.00;;;11.79;81.21
77776;BME280;66965;43.328;6.668;2023-02-25T06:37:02;100221.16;;;11.85;80.69
77776;BME280;66965;43.328;6.668;2023-02-25T06:39:27;100227.78;;;11.95;80.71
77776;BME280;66965;43.328;6.668;2023-02-25T06:41:53;100234.28;;;11.85;80.78
77776;BME280;66965;43.328;6.668;2023-02-25T06:44:18;100237.78;;;11.85;80.77
77776;BME280;66965;43.328;6.668;2023-02-25T06:46:44;100242.28;;;11.82;80.74
77776;BME280;66965;43.328;6.668;2023-02-25T06:49:09;100245.47;;;11.65;80.79
77776;BME280;66965;43.328;6.668;2023-02-25T06:51:37;100241.34;;;11.58;80.63
77776;BME280;66965;43.328;6.668;2023-02-25T06:54:03;100241.69;;;11.74;81.03
77776;BME280;66965;43.328;6.668;2023-02-25T06:56:28;100247.84;;;11.73;81.00
77776;BME280;66965;43.328;6.668;2023-02-25T06:58:55;100249.59;;;11.72;80.93
77776;BME280;66965;43.328;6.668;2023-02-25T07:01:23;100253.94;;;11.73;80.85
77776;BME280;66965;43.328;6.668;2023-02-25T07:03:49;100257.47;;;11.72;80.68
77776;BME280;66965;43.328;6.668;2023-02-25T07:06:15;100256.13;;;11.61;80.51
77776;BME280;66965;43.328;6.668;2023-02-25T07:08:40;100255.84;;;11.68;80.84
77776;BME280;66965;43.328;6.668;2023-02-25T07:13:46;100258.72;;;11.87;79.14
77776;BME280;66965;43.328;6.668;2023-02-25T07:16:13;100268.91;;;11.96;79.04
77776;BME280;66965;43.328;6.668;2023-02-25T07:18:40;100269.22;;;11.87;78.89
77776;BME280;66965;43.328;6.668;2023-02-25T07:21:06;100269.22;;;11.87;79.39
77776;BME280;66965;43.328;6.668;2023-02-25T07:23:32;100278.66;;;11.93;79.29
77776;BME280;66965;43.328;6.668;2023-02-25T07:26:02;100285.47;;;11.98;79.95
77776;BME280;66965;43.328;6.668;2023-02-25T07:28:28;100280.78;;;12.06;79.50
77776;BME280;66965;43.328;6.668;2023-02-25T07:30:53;100287.31;;;11.95;78.94
77776;BME280;66965;43.328;6.668;2023-02-25T07:33:18;100278.94;;;11.85;78.97
77776;BME280;66965;43.328;6.668;2023-02-25T07:35:44;100275.13;;;11.67;79.09
77776;BME280;66965;43.328;6.668;2023-02-25T07:38:09;100285.41;;;11.75;79.12
77776;BME280;66965;43.328;6.668;2023-02-25T07:40:37;100286.44;;;11.45;79.63
77776;BME280;66965;43.328;6.668;2023-02-25T07:43:05;100283.13;;;11.38;80.24
77776;BME280;66965;43.328;6.668;2023-02-25T07:45:31;100276.03;;;11.42;80.61
77776;BME280;66965;43.328;6.668;2023-02-25T07:47:56;100272.97;;;11.54;80.83
77776;BME280;66965;43.328;6.668;2023-02-25T07:50:22;100279.00;;;11.57;80.40
77776;BME280;66965;43.328;6.668;2023-02-25T07:52:47;100271.63;;;11.67;80.46
77776;BME280;66965;43.328;6.668;2023-02-25T07:55:13;100273.97;;;11.77;80.20
77776;BME280;66965;43.328;6.668;2023-02-25T07:57:38;100268.16;;;11.93;79.27
77776;BME280;66965;43.328;6.668;2023-02-25T08:00:04;100274.06;;;12.22;79.18
77776;BME280;66965;43.328;6.668;2023-02-25T08:02:35;100284.53;;;12.47;77.84
77776;BME280;66965;43.328;6.668;2023-02-25T08:05:00;100286.25;;;12.48;77.22
77776;BME280;66965;43.328;6.668;2023-02-25T08:07:28;100290.47;;;12.52;77.36
77776;BME280;66965;43.328;6.668;2023-02-25T08:09:53;100280.50;;;12.60;77.13
77776;BME280;66965;43.328;6.668;2023-02-25T08:12:19;100274.22;;;12.64;77.82
77776;BME280;66965;43.328;6.668;2023-02-25T08:14:44;100281.38;;;12.61;76.91
77776;BME280;66965;43.328;6.668;2023-02-25T08:17:10;100280.34;;;12.65;77.43
77776;BME280;66965;43.328;6.668;2023-02-25T08:19:37;100276.00;;;12.64;76.86
77776;BME280;66965;43.328;6.668;2023-02-25T08:22:03;100271.06;;;12.78;77.57
77776;BME280;66965;43.328;6.668;2023-02-25T08:24:29;100265.13;;;12.73;77.17
77776;BME280;66965;43.328;6.668;2023-02-25T08:26:55;100258.81;;;12.77;77.37
77776;BME280;66965;43.328;6.668;2023-02-25T08:29:21;100254.22;;;12.82;77.68
77776;BME280;66965;43.328;6.668;2023-02-25T08:31:48;100251.72;;;12.79;77.47
77776;BME280;66965;43.328;6.668;2023-02-25T08:34:13;100243.91;;;12.77;78.28
77776;BME280;66965;43.328;6.668;2023-02-25T08:36:39;100244.13;;;12.93;77.99
77776;BME280;66965;43.328;6.668;2023-02-25T08:39:04;100239.75;;;12.93;77.75
77776;BME280;66965;43.328;6.668;2023-02-25T08:41:30;100244.22;;;12.91;78.31
77776;BME280;66965;43.328;6.668;2023-02-25T08:43:57;100234.16;;;13.01;78.55
77776;BME280;66965;43.328;6.668;2023-02-25T08:46:24;100245.03;;;13.15;78.38
77776;BME280;66965;43.328;6.668;2023-02-25T08:48:51;100245.81;;;13.17;77.47
77776;BME280;66965;43.328;6.668;2023-02-25T08:51:18;100240.53;;;13.17;77.64
77776;BME280;66965;43.328;6.668;2023-02-25T08:53:44;100229.47;;;13.09;77.98
77776;BME280;66965;43.328;6.668;2023-02-25T08:56:12;100240.00;;;13.09;79.17
77776;BME280;66965;43.328;6.668;2023-02-25T08:58:38;100238.97;;;13.13;79.12
77776;BME280;66965;43.328;6.668;2023-02-25T09:01:08;100243.00;;;13.22;79.35
77776;BME280;66965;43.328;6.668;2023-02-25T09:03:38;100247.94;;;13.29;78.58
77776;BME280;66965;43.328;6.668;2023-02-25T09:06:04;100243.66;;;13.27;78.59
77776;BME280;66965;43.328;6.668;2023-02-25T09:08:30;100255.09;;;13.26;78.58
77776;BME280;66965;43.328;6.668;2023-02-25T09:10:55;100256.94;;;13.24;78.55
77776;BME280;66965;43.328;6.668;2023-02-25T09:13:21;100248.84;;;13.06;78.82
77776;BME280;66965;43.328;6.668;2023-02-25T09:15:55;100253.97;;;13.11;78.84
77776;BME280;66965;43.328;6.668;2023-02-25T09:18:20;100250.47;;;13.11;78.90
77776;BME280;66965;43.328;6.668;2023-02-25T09:20:49;100242.59;;;13.11;78.77
77776;BME280;66965;43.328;6.668;2023-02-25T09:23:15;100249.63;;;13.10;78.65
77776;BME280;66965;43.328;6.668;2023-02-25T09:25:40;100249.06;;;13.24;78.65
77776;BME280;66965;43.328;6.668;2023-02-25T09:28:08;100259.34;;;13.30;78.28
77776;BME280;66965;43.328;6.668;2023-02-25T09:30:34;100251.94;;;13.18;81.40
77776;BME280;66965;43.328;6.668;2023-02-25T09:32:59;100251.06;;;13.17;79.92
77776;BME280;66965;43.328;6.668;2023-02-25T09:35:25;100254.34;;;12.79;79.49
77776;BME280;66965;43.328;6.668;2023-02-25T09:37:50;100250.03;;;12.78;80.53
77776;BME280;66965;43.328;6.668;2023-02-25T09:40:17;100252.03;;;12.93;81.29
77776;BME280;66965;43.328;6.668;2023-02-25T09:45:30;100250.22;;;12.95;80.70
77776;BME280;66965;43.328;6.668;2023-02-25T09:47:59;100233.13;;;13.05;81.63
77776;BME280;66965;43.328;6.668;2023-02-25T09:50:33;100234.50;;;13.15;81.50
77776;BME280;66965;43.328;6.668;2023-02-25T09:53:23;100233.34;;;13.22;81.31
77776;BME280;66965;43.328;6.668;2023-02-25T09:55:52;100232.28;;;13.26;80.81
77776;BME280;66965;43.328;6.668;2023-02-25T09:58:25;100230.44;;;13.28;80.47
77776;BME280;66965;43.328;6.668;2023-02-25T10:03:47;100232.16;;;12.86;80.34
77776;BME280;66965;43.328;6.668;2023-02-25T10:06:32;100232.50;;;12.98;81.02
77776;BME280;66965;43.328;6.668;2023-02-25T10:09:02;100232.19;;;13.06;80.44
77776;BME280;66965;43.328;6.668;2023-02-25T10:28:30;100219.38;;;13.20;81.69
77776;BME280;66965;43.328;6.668;2023-02-25T10:31:06;100210.88;;;13.34;80.59
77776;BME280;66965;43.328;6.668;2023-02-25T10:33:38;100207.75;;;13.46;80.37
77776;BME280;66965;43.328;6.668;2023-02-25T10:36:19;100209.53;;;13.65;79.65
77776;BME280;66965;43.328;6.668;2023-02-25T10:38:48;100215.97;;;13.79;77.93
77776;BME280;66965;43.328;6.668;2023-02-25T10:41:15;100204.81;;;13.92;77.44
77776;BME280;66965;43.328;6.668;2023-02-25T10:43:42;100195.78;;;13.98;77.12
77776;BME280;66965;43.328;6.668;2023-02-25T10:48:57;100192.38;;;13.76;76.13
77776;BME280;66965;43.328;6.668;2023-02-25T10:51:24;100192.00;;;13.64;76.68
77776;BME280;66965;43.328;6.668;2023-02-25T10:56:17;100189.00;;;13.92;77.09
77776;BME280;66965;43.328;6.668;2023-02-25T10:58:45;100178.75;;;14.05;77.26
77776;BME280;66965;43.328;6.668;2023-02-25T11:01:23;100179.75;;;14.02;77.09
77776;BME280;66965;43.328;6.668;2023-02-25T11:03:58;100177.69;;;14.09;76.59
77776;BME280;66965;43.328;6.668;2023-02-25T11:06:27;100168.03;;;14.09;75.79
77776;BME280;66965;43.328;6.668;2023-02-25T11:08:54;100173.72;;;14.19;75.95
77776;BME280;66965;43.328;6.668;2023-02-25T11:11:31;100176.69;;;14.32;75.44
77776;BME280;66965;43.328;6.668;2023-02-25T11:14:06;100163.28;;;14.36;75.48
77776;BME280;66965;43.328;6.668;2023-02-25T11:16:38;100162.63;;;14.50;74.97
77776;BME280;66965;43.328;6.668;2023-02-25T11:19:16;100154.56;;;14.53;74.66
77776;BME280;66965;43.328;6.668;2023-02-25T11:21:44;100150.44;;;14.47;74.32
77776;BME280;66965;43.328;6.668;2023-02-25T11:24:16;100151.44;;;14.45;74.26
77776;BME280;66965;43.328;6.668;2023-02-25T11:26:47;100143.53;;;14.45;74.43
77776;BME280;66965;43.328;6.668;2023-02-25T11:29:20;100139.34;;;14.58;74.06
77776;BME280;66965;43.328;6.668;2023-02-25T11:31:50;100137.34;;;14.63;74.11
77776;BME280;66965;43.328;6.668;2023-02-25T11:34:23;100137.06;;;14.69;73.89
77776;BME280;66965;43.328;6.668;2023-02-25T11:36:50;100139.06;;;14.81;74.14
77776;BME280;66965;43.328;6.668;2023-02-25T11:39:25;100133.38;;;14.54;74.37
77776;BME280;66965;43.328;6.668;2023-02-25T11:41:54;100133.78;;;14.81;74.28
77776;BME280;66965;43.328;6.668;2023-02-25T11:44:39;100134.34;;;14.88;74.60
77776;BME280;66965;43.328;6.668;2023-02-25T11:47:27;100126.00;;;14.97;73.76
77776;BME280;66965;43.328;6.668;2023-02-25T11:50:04;100131.59;;;15.08;73.07
77776;BME280;66965;43.328;6.668;2023-02-25T11:52:45;100124.13;;;15.16;73.07
77776;BME280;66965;43.328;6.668;2023-02-25T12:08:41;100070.63;;;15.45;71.82
77776;BME280;66965;43.328;6.668;2023-02-25T12:19:18;100026.06;;;15.72;70.47
77776;BME280;66965;43.328;6.668;2023-02-25T12:24:41;100026.47;;;16.11;68.76
77776;BME280;66965;43.328;6.668;2023-02-25T12:38:44;100016.16;;;16.52;68.03
77776;BME280;66965;43.328;6.668;2023-02-25T12:41:29;100026.06;;;16.48;66.96
77776;BME280;66965;43.328;6.668;2023-02-25T12:57:45;100026.06;;;15.72;70.91
77776;BME280;66965;43.328;6.668;2023-02-25T13:12:24;100014.63;;;15.71;70.26
77776;BME280;66965;43.328;6.668;2023-02-25T13:15:19;100009.34;;;15.56;70.22
77776;BME280;66965;43.328;6.668;2023-02-25T13:34:46;99983.78;;;14.91;73.54
77776;BME280;66965;43.328;6.668;2023-02-25T13:50:44;99980.00;;;14.62;72.97
77776;BME280;66965;43.328;6.668;2023-02-25T14:01:40;99986.44;;;14.73;73.15
77776;BME280;66965;43.328;6.668;2023-02-25T14:09:55;99969.13;;;15.18;71.25
77776;BME280;66965;43.328;6.668;2023-02-25T14:13:13;99965.56;;;15.34;70.67
77776;BME280;66965;43.328;6.668;2023-02-25T14:35:14;99938.31;;;15.34;71.10
77776;BME280;66965;43.328;6.668;2023-02-25T14:40:27;99936.25;;;15.39;70.64
77776;BME280;66965;43.328;6.668;2023-02-25T14:43:22;99938.63;;;15.28;70.80
77776;BME280;66965;43.328;6.668;2023-02-25T14:48:45;99941.53;;;15.23;69.99
77776;BME280;66965;43.328;6.668;2023-02-25T15:12:00;99926.88;;;15.18;71.51
77776;BME280;66965;43.328;6.668;2023-02-25T15:14:49;99918.69;;;15.22;70.83
77776;BME280;66965;43.328;6.668;2023-02-25T15:20:37;99921.75;;;15.15;71.88
77776;BME280;66965;43.328;6.668;2023-02-25T15:23:11;99916.06;;;15.07;71.60
77776;BME280;66965;43.328;6.668;2023-02-25T15:33:38;99907.84;;;14.80;72.75
77776;BME280;66965;43.328;6.668;2023-02-25T15:38:52;99904.66;;;14.73;72.81
77776;BME280;66965;43.328;6.668;2023-02-25T15:41:40;99898.53;;;14.73;72.97
77776;BME280;66965;43.328;6.668;2023-02-25T15:46:41;99894.41;;;14.67;73.00
77776;BME280;66965;43.328;6.668;2023-02-25T15:49:21;99897.16;;;14.66;73.39
77776;BME280;66965;43.328;6.668;2023-02-25T15:51:53;99899.53;;;14.70;73.62
77776;BME280;66965;43.328;6.668;2023-02-25T15:57:00;99901.09;;;14.74;72.80
77776;BME280;66965;43.328;6.668;2023-02-25T15:59:50;99899.78;;;14.66;72.01
77776;BME280;66965;43.328;6.668;2023-02-25T16:04:51;99895.50;;;14.48;73.02
77776;BME280;66965;43.328;6.668;2023-02-25T16:07:20;99897.44;;;14.44;72.42
77776;BME280;66965;43.328;6.668;2023-02-25T16:09:53;99899.34;;;14.41;72.46
77776;BME280;66965;43.328;6.668;2023-02-25T16:12:19;99902.00;;;14.41;73.42
77776;BME280;66965;43.328;6.668;2023-02-25T16:14:46;99901.38;;;14.36;73.74
77776;BME280;66965;43.328;6.668;2023-02-25T16:17:31;99901.47;;;14.34;74.02
77776;BME280;66965;43.328;6.668;2023-02-25T16:20:24;99899.28;;;14.42;74.11
77776;BME280;66965;43.328;6.668;2023-02-25T16:22:50;99900.69;;;14.32;73.45
77776;BME280;66965;43.328;6.668;2023-02-25T16:25:29;99896.19;;;14.34;73.82
77776;BME280;66965;43.328;6.668;2023-02-25T16:30:53;99894.59;;;14.30;73.89
77776;BME280;66965;43.328;6.668;2023-02-25T16:33:29;99888.63;;;14.26;73.91
77776;BME280;66965;43.328;6.668;2023-02-25T16:41:15;99878.66;;;13.99;75.39
77776;BME280;66965;43.328;6.668;2023-02-25T16:43:42;99887.78;;;13.92;76.29
77776;BME280;66965;43.328;6.668;2023-02-25T16:46:32;99880.97;;;13.88;76.56
77776;BME280;66965;43.328;6.668;2023-02-25T16:49:00;99879.41;;;13.84;76.61
77776;BME280;66965;43.328;6.668;2023-02-25T16:51:39;99886.06;;;13.91;76.96
77776;BME280;66965;43.328;6.668;2023-02-25T16:54:29;99879.88;;;13.92;76.91
77776;BME280;66965;43.328;6.668;2023-02-25T16:56:57;99882.44;;;13.76;76.47
77776;BME280;66965;43.328;6.668;2023-02-25T16:59:23;99880.72;;;13.75;77.25
77776;BME280;66965;43.328;6.668;2023-02-25T17:04:23;99881.41;;;13.79;76.53